createdAt,value
2023-02-24T00:02:26.616Z,4.80
2023-02-24T00:04:57.482Z,4.80
2023-02-24T00:07:30.699Z,4.70
2023-02-24T00:09:59.772Z,4.70
2023-02-24T00:12:28.807Z,4.70
2023-02-24T00:14:57.422Z,4.70
2023-02-24T00:17:30.591Z,4.80
2023-02-24T00:19:59.252Z,4.80
2023-02-24T00:22:28.575Z,4.70
2023-02-24T00:24:57.163Z,4.60
2023-02-24T00:27:25.731Z,4.50
2023-02-24T00:29:54.414Z,4.50
2023-02-24T00:32:23.734Z,4.50
2023-02-24T00:34:53.929Z,4.50
2023-02-24T00:37:24.226Z,4.40
2023-02-24T00:39:57.602Z,4.40
2023-02-24T00:42:27.176Z,4.40
2023-02-24T00:44:55.829Z,4.40
2023-02-24T00:47:24.554Z,4.20
2023-02-24T00:49:57.548Z,4.20
2023-02-24T00:52:28.034Z,4.10
2023-02-24T00:54:57.852Z,4.10
2023-02-24T00:57:27.116Z,4.00
2023-02-24T01:00:01.194Z,4.10
2023-02-24T01:02:30.252Z,4.00
2023-02-24T01:05:01.361Z,4.00
2023-02-24T01:07:30.070Z,4.00
2023-02-24T01:10:01.227Z,3.90
2023-02-24T01:12:49.980Z,3.80
2023-02-24T01:15:20.781Z,3.80
2023-02-24T01:17:49.768Z,3.70
2023-02-24T01:20:20.253Z,3.70
2023-02-24T01:22:53.095Z,3.70
2023-02-24T01:25:21.797Z,3.80
2023-02-24T01:27:50.892Z,3.70
2023-02-24T01:30:20.711Z,3.80
2023-02-24T01:32:49.577Z,3.90
2023-02-24T01:35:20.324Z,3.90
2023-02-24T01:37:49.547Z,3.90
2023-02-24T01:40:21.747Z,3.90
2023-02-24T01:42:51.880Z,3.90
2023-02-24T01:45:25.074Z,4.00
2023-02-24T01:47:58.152Z,4.00
2023-02-24T01:50:29.437Z,3.90
2023-02-24T01:53:02.139Z,3.90
2023-02-24T01:55:33.654Z,3.80
2023-02-24T01:58:06.778Z,3.80
2023-02-24T02:00:39.298Z,3.80
2023-02-24T02:03:13.411Z,3.80
2023-02-24T02:05:45.389Z,3.70
2023-02-24T02:08:15.047Z,3.70
2023-02-24T02:10:45.380Z,3.70
2023-02-24T02:13:16.730Z,3.70
2023-02-24T02:15:56.966Z,3.70
2023-02-24T02:18:36.932Z,3.70
2023-02-24T02:21:48.372Z,3.70
2023-02-24T02:24:48.578Z,3.60
2023-02-24T02:28:08.561Z,3.60
2023-02-24T02:31:08.436Z,3.50
2023-02-24T02:34:03.078Z,3.50
2023-02-24T02:36:35.552Z,3.50
2023-02-24T02:39:15.477Z,3.50
2023-02-24T02:41:53.248Z,3.50
2023-02-24T02:44:25.449Z,3.50
2023-02-24T02:47:01.852Z,3.50
2023-02-24T02:49:37.514Z,3.50
2023-02-24T02:52:14.306Z,3.50
2023-02-24T02:54:49.866Z,3.50
2023-02-24T02:57:21.832Z,3.60
2023-02-24T02:59:56.638Z,3.60
2023-02-24T03:02:30.905Z,3.60
2023-02-24T03:05:05.022Z,3.60
2023-02-24T03:07:40.557Z,3.60
2023-02-24T03:10:20.927Z,3.70
2023-02-24T03:12:53.754Z,3.70
2023-02-24T03:15:26.203Z,3.70
2023-02-24T03:18:01.806Z,3.60
2023-02-24T03:20:37.118Z,3.60
2023-02-24T03:23:10.632Z,3.50
2023-02-24T03:25:45.158Z,3.50
2023-02-24T03:28:19.658Z,3.50
2023-02-24T03:30:55.536Z,3.40
2023-02-24T03:33:30.391Z,3.30
2023-02-24T03:36:02.132Z,3.20
2023-02-24T03:38:33.718Z,3.10
2023-02-24T03:41:03.307Z,3.00
2023-02-24T03:43:38.508Z,2.90
2023-02-24T03:46:07.348Z,2.90
2023-02-24T03:48:39.500Z,2.80
2023-02-24T03:51:16.099Z,2.70
2023-02-24T03:53:58.250Z,2.70
2023-02-24T03:56:34.782Z,2.60
2023-02-24T03:59:16.057Z,2.60
2023-02-24T04:01:58.000Z,2.50
2023-02-24T04:04:33.310Z,2.50
2023-02-24T04:07:10.730Z,2.50
2023-02-24T04:09:47.045Z,2.30
2023-02-24T04:12:20.029Z,2.20
2023-02-24T04:14:53.328Z,2.10
2023-02-24T04:17:27.846Z,2.10
2023-02-24T04:20:01.075Z,2.10
2023-02-24T04:22:33.176Z,2.00
2023-02-24T04:25:03.383Z,2.00
2023-02-24T04:27:32.043Z,2.00
2023-02-24T04:30:05.014Z,1.90
2023-02-24T04:32:34.566Z,1.90
2023-02-24T04:35:06.282Z,1.80
2023-02-24T04:37:37.342Z,1.80
2023-02-24T04:40:11.241Z,1.80
2023-02-24T04:42:46.564Z,1.80
2023-02-24T04:45:17.053Z,1.80
2023-02-24T04:47:49.580Z,1.70
2023-02-24T04:50:24.104Z,1.70
2023-02-24T04:52:56.590Z,1.60
2023-02-24T04:55:29.623Z,1.60
2023-02-24T04:57:59.057Z,1.60
2023-02-24T05:00:33.629Z,1.70
2023-02-24T05:03:03.322Z,1.60
2023-02-24T05:05:34.854Z,1.70
2023-02-24T05:08:07.421Z,1.70
2023-02-24T05:10:39.107Z,1.80
2023-02-24T05:13:09.253Z,1.80
2023-02-24T05:15:42.132Z,1.80
2023-02-24T05:18:14.234Z,1.80
2023-02-24T05:21:03.103Z,1.70
2023-02-24T05:23:34.734Z,1.80
2023-02-24T05:26:08.857Z,1.80
2023-02-24T05:28:38.688Z,1.90
2023-02-24T05:31:10.273Z,1.90
2023-02-24T05:33:40.283Z,2.00
2023-02-24T05:36:10.656Z,2.00
2023-02-24T05:38:41.005Z,1.90
2023-02-24T05:41:15.456Z,2.00
2023-02-24T05:43:48.241Z,2.00
2023-02-24T05:46:17.185Z,2.00
2023-02-24T05:48:47.128Z,1.90
2023-02-24T05:51:17.246Z,2.00
2023-02-24T05:53:48.624Z,2.10
2023-02-24T05:56:19.293Z,2.10
2023-02-24T05:58:50.219Z,2.10
2023-02-24T06:01:19.525Z,2.10
2023-02-24T06:03:49.068Z,2.10
2023-02-24T06:06:18.465Z,2.20
2023-02-24T06:08:50.835Z,2.20
2023-02-24T06:11:21.446Z,2.30
2023-02-24T06:13:50.518Z,2.30
2023-02-24T06:16:20.069Z,2.30
2023-02-24T06:18:51.224Z,2.40
2023-02-24T06:21:20.748Z,2.30
2023-02-24T06:23:50.789Z,2.40
2023-02-24T06:26:21.761Z,2.40
2023-02-24T06:28:54.190Z,2.40
2023-02-24T06:31:23.230Z,2.50
2023-02-24T06:33:53.688Z,2.50
2023-02-24T06:36:23.447Z,2.50
2023-02-24T06:38:54.371Z,2.50
2023-02-24T06:41:23.118Z,2.50
2023-02-24T06:43:53.086Z,2.50
2023-02-24T06:46:21.598Z,2.50
2023-02-24T06:48:50.236Z,2.50
2023-02-24T06:51:19.537Z,2.50
2023-02-24T06:53:49.228Z,2.60
2023-02-24T06:56:20.003Z,2.70
2023-02-24T06:58:50.763Z,2.70
2023-02-24T07:01:22.424Z,2.70
2023-02-24T07:04:18.009Z,2.80
2023-02-24T07:06:49.785Z,2.80
2023-02-24T07:09:20.037Z,2.90
2023-02-24T07:11:52.600Z,2.90
2023-02-24T07:14:22.647Z,2.90
2023-02-24T07:16:54.804Z,2.80
2023-02-24T07:19:25.751Z,2.90
2023-02-24T07:22:00.429Z,2.90
2023-02-24T07:24:36.199Z,3.00
2023-02-24T07:27:09.546Z,3.00
2023-02-24T07:29:41.226Z,3.00
2023-02-24T07:32:12.040Z,3.00
2023-02-24T07:34:41.012Z,3.00
2023-02-24T07:37:09.968Z,3.10
2023-02-24T07:39:39.898Z,3.10
2023-02-24T07:42:12.580Z,3.20
2023-02-24T07:44:42.733Z,3.20
2023-02-24T07:47:11.280Z,3.10
2023-02-24T07:49:41.231Z,3.20
2023-02-24T07:52:12.276Z,3.20
2023-02-24T07:54:41.161Z,3.30
2023-02-24T07:57:14.367Z,3.20
2023-02-24T07:59:47.728Z,3.20
2023-02-24T08:02:18.576Z,3.20
2023-02-24T08:04:50.626Z,3.30
2023-02-24T08:07:25.505Z,3.30
2023-02-24T08:10:24.417Z,3.30
2023-02-24T08:12:56.051Z,3.40
2023-02-24T08:15:26.898Z,3.40
2023-02-24T08:17:59.790Z,3.40
2023-02-24T08:20:36.226Z,3.40
2023-02-24T08:23:07.561Z,3.50
2023-02-24T08:25:44.570Z,3.60
2023-02-24T08:28:14.723Z,3.60
2023-02-24T08:30:46.626Z,3.60
2023-02-24T08:33:20.149Z,3.50
2023-02-24T08:35:58.096Z,3.60
2023-02-24T08:38:40.036Z,3.60
2023-02-24T08:41:17.940Z,3.70
2023-02-24T08:43:49.953Z,3.70
2023-02-24T08:46:25.777Z,3.70
2023-02-24T08:48:57.798Z,3.70
2023-02-24T08:51:29.946Z,3.70
2023-02-24T08:54:01.264Z,3.80
2023-02-24T08:56:34.619Z,3.80
2023-02-24T08:59:07.642Z,3.80
2023-02-24T09:02:04.147Z,3.80
2023-02-24T09:04:35.513Z,3.90
2023-02-24T09:07:11.584Z,3.90
2023-02-24T09:09:42.577Z,4.00
2023-02-24T09:12:22.205Z,4.00
2023-02-24T09:14:56.395Z,4.00
2023-02-24T09:17:40.367Z,4.00
2023-02-24T09:20:44.562Z,4.00
2023-02-24T09:23:20.386Z,3.90
2023-02-24T09:25:50.883Z,4.00
2023-02-24T09:28:24.870Z,4.00
2023-02-24T09:30:57.361Z,4.00
2023-02-24T09:33:28.932Z,4.00
2023-02-24T09:36:11.665Z,4.00
2023-02-24T09:38:58.353Z,4.00
2023-02-24T09:41:34.690Z,4.00
2023-02-24T09:44:07.817Z,4.00
2023-02-24T09:46:54.318Z,3.90
2023-02-24T09:49:28.252Z,4.00
2023-02-24T09:52:09.373Z,4.00
2023-02-24T09:54:37.909Z,4.00
2023-02-24T09:57:17.863Z,4.10
2023-02-24T10:00:01.584Z,4.00
2023-02-24T10:02:44.827Z,4.00
2023-02-24T10:05:27.537Z,4.10
2023-02-24T10:08:00.637Z,4.10
2023-02-24T10:10:36.329Z,4.10
2023-02-24T10:13:15.128Z,4.20
2023-02-24T10:15:59.285Z,4.30
2023-02-24T10:18:34.931Z,4.30
2023-02-24T10:21:15.733Z,4.30
2023-02-24T10:24:05.845Z,4.40
2023-02-24T10:26:59.593Z,4.40
2023-02-24T10:29:43.584Z,4.40
2023-02-24T10:32:24.233Z,4.40
2023-02-24T10:34:55.282Z,4.20
2023-02-24T10:37:29.512Z,4.20
2023-02-24T10:40:00.162Z,4.20
2023-02-24T10:42:32.843Z,4.20
2023-02-24T10:45:18.207Z,4.20
2023-02-24T10:47:57.125Z,4.10
2023-02-24T10:50:32.591Z,4.10
2023-02-24T10:53:26.724Z,4.10
2023-02-24T10:56:23.646Z,4.10
2023-02-24T10:59:20.994Z,4.00
2023-02-24T11:01:59.665Z,4.00
2023-02-24T11:04:44.361Z,4.00
2023-02-24T11:07:24.981Z,4.00
2023-02-24T11:10:13.958Z,4.00
2023-02-24T11:13:10.023Z,4.10
2023-02-24T11:16:01.482Z,4.10
2023-02-24T11:18:32.073Z,4.10
2023-02-24T11:21:02.475Z,4.10
2023-02-24T11:23:36.336Z,4.10
2023-02-24T11:26:13.355Z,4.00
2023-02-24T11:29:13.438Z,4.00
2023-02-24T11:32:09.102Z,4.00
2023-02-24T11:34:49.711Z,4.10
2023-02-24T11:37:29.162Z,4.00
2023-02-24T11:40:04.560Z,4.10
2023-02-24T11:42:38.252Z,4.10
2023-02-24T11:45:14.251Z,4.10
2023-02-24T11:47:45.515Z,4.10
2023-02-24T11:50:46.300Z,4.20
2023-02-24T11:53:26.483Z,4.10
2023-02-24T11:56:03.267Z,4.10
2023-02-24T11:58:41.583Z,4.10
2023-02-24T12:01:16.991Z,4.00
2023-02-24T12:03:53.951Z,4.00
2023-02-24T12:06:28.900Z,3.90
2023-02-24T12:09:07.875Z,4.00
2023-02-24T12:11:51.793Z,4.00
2023-02-24T12:14:28.694Z,3.90
2023-02-24T12:17:07.970Z,3.90
2023-02-24T12:19:42.927Z,3.90
2023-02-24T12:22:16.337Z,3.90
2023-02-24T12:24:51.758Z,3.90
2023-02-24T12:27:33.600Z,3.90
2023-02-24T12:30:38.813Z,3.90
2023-02-24T12:33:20.481Z,4.00
2023-02-24T12:35:57.637Z,3.90
2023-02-24T12:38:44.306Z,4.00
2023-02-24T12:41:37.317Z,4.00
2023-02-24T12:44:20.626Z,4.00
2023-02-24T12:46:58.381Z,4.00
2023-02-24T12:49:45.877Z,4.00
2023-02-24T12:52:22.172Z,3.90
2023-02-24T12:54:56.685Z,3.90
2023-02-24T12:57:32.252Z,3.90
2023-02-24T13:00:10.536Z,3.90
2023-02-24T13:02:54.022Z,4.00
2023-02-24T13:05:27.270Z,4.00
2023-02-24T13:08:12.570Z,3.90
2023-02-24T13:10:48.806Z,4.00
2023-02-24T13:13:26.362Z,4.00
2023-02-24T13:15:58.438Z,4.00
2023-02-24T13:18:31.408Z,4.10
2023-02-24T13:21:08.221Z,4.10
2023-02-24T13:23:38.188Z,4.10
2023-02-24T13:26:07.154Z,4.10
2023-02-24T13:28:38.706Z,4.10
2023-02-24T13:31:11.356Z,4.10
2023-02-24T13:33:41.909Z,4.10
2023-02-24T13:36:16.852Z,4.20
2023-02-24T13:38:48.608Z,4.20
2023-02-24T13:41:36.779Z,4.20
2023-02-24T13:44:27.004Z,4.30
2023-02-24T13:47:21.606Z,4.30
2023-02-24T13:50:03.378Z,4.30
2023-02-24T13:52:45.209Z,4.30
2023-02-24T13:55:29.576Z,4.30
2023-02-24T13:58:22.184Z,4.30
2023-02-24T14:01:06.574Z,4.30
2023-02-24T14:03:39.680Z,4.30
2023-02-24T14:06:15.918Z,4.40
2023-02-24T14:08:47.291Z,4.40
2023-02-24T14:11:18.709Z,4.40
2023-02-24T14:13:50.729Z,4.40
2023-02-24T14:16:25.923Z,4.40
2023-02-24T14:18:58.525Z,4.50
2023-02-24T14:21:29.368Z,4.50
2023-02-24T14:24:00.994Z,4.60
2023-02-24T14:26:32.545Z,4.50
2023-02-24T14:29:03.593Z,4.60
2023-02-24T14:31:32.478Z,4.60
2023-02-24T14:34:04.201Z,4.70
2023-02-24T14:36:37.264Z,4.80
2023-02-24T14:39:12.028Z,4.80
2023-02-24T14:41:41.183Z,4.90
2023-02-24T14:44:26.439Z,5.00
2023-02-24T14:46:57.023Z,5.00
2023-02-24T14:49:31.108Z,5.10
2023-02-24T14:52:07.255Z,5.20
2023-02-24T14:54:46.180Z,5.20
2023-02-24T14:57:18.770Z,5.30
2023-02-24T14:59:50.590Z,5.20
2023-02-24T15:02:25.042Z,5.30
2023-02-24T15:04:58.922Z,5.30
2023-02-24T15:07:30.268Z,5.30
2023-02-24T15:09:59.612Z,5.40
2023-02-24T15:12:33.212Z,5.50
2023-02-24T15:15:05.649Z,5.60
2023-02-24T15:17:35.339Z,5.60
2023-02-24T15:20:25.702Z,5.60
2023-02-24T15:22:54.684Z,5.60
2023-02-24T15:25:37.152Z,5.60
2023-02-24T15:28:25.716Z,5.60
2023-02-24T15:31:18.055Z,5.60
2023-02-24T15:33:54.809Z,5.70
2023-02-24T15:36:27.600Z,5.70
2023-02-24T15:38:59.478Z,5.70
2023-02-24T15:41:39.010Z,5.70
2023-02-24T15:44:07.950Z,5.80
2023-02-24T15:46:37.837Z,5.80
2023-02-24T15:49:07.236Z,5.80
2023-02-24T15:51:41.163Z,5.80
2023-02-24T15:54:14.048Z,5.80
2023-02-24T15:56:43.421Z,5.70
2023-02-24T15:59:15.479Z,5.70
2023-02-24T16:01:44.460Z,5.60
2023-02-24T16:04:13.488Z,5.60
2023-02-24T16:06:54.775Z,5.50
2023-02-24T16:09:32.220Z,5.40
2023-02-24T16:12:01.840Z,5.30
2023-02-24T16:14:30.826Z,5.30
2023-02-24T16:17:00.711Z,5.30
2023-02-24T16:19:30.193Z,5.30
2023-02-24T16:22:00.456Z,5.30
2023-02-24T16:24:29.606Z,5.30
2023-02-24T16:26:58.342Z,5.20
2023-02-24T16:29:27.225Z,5.10
2023-02-24T16:31:56.344Z,5.10
2023-02-24T16:34:27.751Z,5.00
2023-02-24T16:36:56.783Z,5.00
2023-02-24T16:39:27.252Z,5.10
2023-02-24T16:41:56.217Z,5.10
2023-02-24T16:44:25.523Z,5.10
2023-02-24T16:46:54.311Z,5.10
2023-02-24T16:49:23.332Z,5.10
2023-02-24T16:51:52.232Z,5.10
2023-02-24T16:54:29.441Z,5.10
2023-02-24T16:57:00.150Z,5.10
2023-02-24T16:59:29.152Z,5.10
2023-02-24T17:01:59.783Z,5.10
2023-02-24T17:04:28.610Z,5.10
2023-02-24T17:06:57.694Z,5.10
2023-02-24T17:09:29.646Z,5.10
2023-02-24T17:12:03.172Z,5.20
2023-02-24T17:14:32.008Z,5.20
2023-02-24T17:17:00.987Z,5.20
2023-02-24T17:19:29.839Z,5.20
2023-02-24T17:21:58.746Z,5.20
2023-02-24T17:24:28.736Z,5.30
2023-02-24T17:26:59.928Z,5.30
2023-02-24T17:29:30.296Z,5.30
2023-02-24T17:31:59.418Z,5.20
2023-02-24T17:34:28.355Z,5.20
2023-02-24T17:36:57.192Z,5.20
2023-02-24T17:39:26.126Z,5.20
2023-02-24T17:41:56.594Z,5.10
2023-02-24T17:44:26.509Z,5.10
2023-02-24T17:46:56.958Z,5.10
2023-02-24T17:49:25.896Z,5.10
2023-02-24T17:51:54.920Z,5.10
2023-02-24T17:54:23.813Z,5.20
2023-02-24T17:56:53.398Z,5.10
2023-02-24T17:59:22.092Z,5.10
2023-02-24T18:01:51.023Z,5.10
2023-02-24T18:04:21.390Z,5.00
2023-02-24T18:06:50.857Z,5.00
2023-02-24T18:09:19.730Z,5.00
2023-02-24T18:11:48.679Z,5.00
2023-02-24T18:14:17.636Z,4.90
2023-02-24T18:16:46.675Z,4.90
2023-02-24T18:19:15.685Z,4.90
2023-02-24T18:21:46.163Z,4.90
2023-02-24T18:24:15.174Z,4.90
2023-02-24T18:26:44.633Z,4.90
2023-02-24T18:29:13.875Z,4.90
2023-02-24T18:31:44.183Z,4.90
2023-02-24T18:34:19.377Z,4.80
2023-02-24T18:36:50.533Z,4.80
2023-02-24T18:39:21.814Z,4.70
2023-02-24T18:41:50.980Z,4.60
2023-02-24T18:44:23.136Z,4.60
2023-02-24T18:46:52.270Z,4.60
2023-02-24T18:49:21.780Z,4.50
2023-02-24T18:51:57.110Z,4.50
2023-02-24T18:54:26.880Z,4.50
2023-02-24T18:56:56.163Z,4.50
2023-02-24T18:59:28.016Z,4.50
2023-02-24T19:01:57.669Z,4.50
2023-02-24T19:04:29.185Z,4.40
2023-02-24T19:07:00.548Z,4.40
2023-02-24T19:09:29.483Z,4.30
2023-02-24T19:11:58.585Z,4.30
2023-02-24T19:14:27.685Z,4.30
2023-02-24T19:16:56.465Z,4.30
2023-02-24T19:19:25.327Z,4.20
2023-02-24T19:21:54.305Z,4.20
2023-02-24T19:24:24.627Z,4.10
2023-02-24T19:26:55.102Z,4.10
2023-02-24T19:29:24.797Z,4.10
2023-02-24T19:31:57.951Z,4.10
2023-02-24T19:34:27.216Z,4.10
2023-02-24T19:36:56.827Z,4.10
2023-02-24T19:39:27.328Z,4.10
2023-02-24T19:41:57.650Z,4.10
2023-02-24T19:44:27.844Z,4.20
2023-02-24T19:46:56.798Z,4.10
2023-02-24T19:49:25.879Z,4.20
2023-02-24T19:51:56.005Z,4.20
2023-02-24T19:54:28.326Z,4.20
2023-02-24T19:56:58.745Z,4.20
2023-02-24T19:59:27.707Z,4.20
2023-02-24T20:01:56.900Z,4.20
2023-02-24T20:04:26.903Z,4.20
2023-02-24T20:06:55.829Z,4.20
2023-02-24T20:09:24.916Z,4.20
2023-02-24T20:12:02.212Z,4.10
2023-02-24T20:14:31.993Z,4.10
2023-02-24T20:17:00.782Z,4.10
2023-02-24T20:19:30.200Z,4.10
2023-02-24T20:21:59.543Z,4.00
2023-02-24T20:24:30.985Z,4.00
2023-02-24T20:27:06.785Z,4.00
2023-02-24T20:29:36.394Z,4.00
2023-02-24T20:32:08.458Z,4.00
2023-02-24T20:34:39.125Z,4.00
2023-02-24T20:37:12.681Z,3.90
2023-02-24T20:39:41.739Z,3.90
2023-02-24T20:42:13.271Z,3.90
2023-02-24T20:44:45.032Z,4.00
2023-02-24T20:47:14.630Z,4.00
2023-02-24T20:49:44.843Z,4.00
2023-02-24T20:52:14.811Z,4.00
2023-02-24T20:54:46.095Z,4.00
2023-02-24T20:57:19.995Z,4.00
2023-02-24T21:00:03.515Z,4.00
2023-02-24T21:02:34.244Z,3.90
2023-02-24T21:05:04.631Z,3.90
2023-02-24T21:07:33.883Z,3.80
2023-02-24T21:10:11.102Z,3.80
2023-02-24T21:12:41.938Z,3.80
2023-02-24T21:15:20.998Z,3.80
2023-02-24T21:17:53.065Z,3.70
2023-02-24T21:20:24.266Z,3.70
2023-02-24T21:22:53.996Z,3.70
2023-02-24T21:25:23.578Z,3.60
2023-02-24T21:27:56.758Z,3.60
2023-02-24T21:30:29.243Z,3.70
2023-02-24T21:32:58.018Z,3.70
2023-02-24T21:35:28.582Z,3.70
2023-02-24T21:37:58.209Z,3.70
2023-02-24T21:40:29.356Z,3.70
2023-02-24T21:43:02.043Z,3.60
2023-02-24T21:45:40.842Z,3.60
2023-02-24T21:48:09.685Z,3.60
2023-02-24T21:50:48.916Z,3.60
2023-02-24T21:53:24.078Z,3.60
2023-02-24T21:56:03.439Z,3.60
2023-02-24T21:58:36.268Z,3.60
2023-02-24T22:01:11.666Z,3.60
2023-02-24T22:03:40.955Z,3.50
2023-02-24T22:06:12.120Z,3.50
2023-02-24T22:08:45.882Z,3.50
2023-02-24T22:11:17.006Z,3.50
2023-02-24T22:13:49.516Z,3.50
2023-02-24T22:16:21.748Z,3.50
2023-02-24T22:18:52.225Z,3.40
2023-02-24T22:21:25.568Z,3.40
2023-02-24T22:23:57.407Z,3.40
2023-02-24T22:26:27.152Z,3.40
2023-02-24T22:28:57.950Z,3.40
2023-02-24T22:31:31.945Z,3.40
2023-02-24T22:34:05.748Z,3.40
2023-02-24T22:36:37.094Z,3.40
2023-02-24T22:39:09.559Z,3.40
2023-02-24T22:41:41.851Z,3.40
2023-02-24T22:44:14.454Z,3.40
2023-02-24T22:46:43.792Z,3.40
2023-02-24T22:49:13.026Z,3.40
2023-02-24T22:51:42.399Z,3.30
2023-02-24T22:54:11.609Z,3.30
2023-02-24T22:56:40.703Z,3.30
2023-02-24T22:59:09.470Z,3.40
2023-02-24T23:01:40.835Z,3.30
2023-02-24T23:04:14.151Z,3.40
2023-02-24T23:06:45.869Z,3.40
2023-02-24T23:09:19.899Z,3.40
2023-02-24T23:11:49.549Z,3.40
2023-02-24T23:14:18.567Z,3.40
2023-02-24T23:16:56.039Z,3.40
2023-02-24T23:19:25.015Z,3.40
2023-02-24T23:21:56.492Z,3.40
2023-02-24T23:24:25.869Z,3.40
2023-02-24T23:26:57.791Z,3.30
2023-02-24T23:29:27.833Z,3.30
2023-02-24T23:31:58.516Z,3.30
2023-02-24T23:34:27.210Z,3.30
2023-02-24T23:36:55.874Z,3.30
2023-02-24T23:39:24.633Z,3.30
2023-02-24T23:41:57.584Z,3.30
2023-02-24T23:44:26.570Z,3.30
2023-02-24T23:46:58.303Z,3.30
2023-02-24T23:49:42.483Z,3.30
2023-02-24T23:52:16.237Z,3.40
2023-02-24T23:54:45.385Z,3.40
2023-02-24T23:57:13.972Z,3.40
2023-02-24T23:59:42.950Z,3.40
